sensor_id;sensor_type;location;lat;lon;timestamp;pressure;altitude;pressure_sealevel;temperature;humidity
70916;BME280;58557;50.982;-3.222;2023-04-09T00:02:15;101619.18;;;12.52;47.47
70916;BME280;58557;50.982;-3.222;2023-04-09T00:04:41;101617.65;;;13.15;45.56
70916;BME280;58557;50.982;-3.222;2023-04-09T00:07:05;101617.16;;;12.74;46.85
70916;BME280;58557;50.982;-3.222;2023-04-09T00:09:31;101612.29;;;12.51;47.66
70916;BME280;58557;50.982;-3.222;2023-04-09T00:11:56;101615.04;;;10.83;51.41
70916;BME280;58557;50.982;-3.222;2023-04-09T00:14:22;101617.03;;;11.35;50.02
70916;BME280;58557;50.982;-3.222;2023-04-09T00:16:47;101614.31;;;12.15;47.45
70916;BME280;58557;50.982;-3.222;2023-04-09T00:19:13;101618.93;;;12.45;48.85
70916;BME280;58557;50.982;-3.222;2023-04-09T00:21:38;101621.72;;;12.46;47.91
70916;BME280;58557;50.982;-3.222;2023-04-09T00:24:04;101619.57;;;11.97;48.86
70916;BME280;58557;50.982;-3.222;2023-04-09T00:26:30;101625.32;;;11.80;49.89
70916;BME280;58557;50.982;-3.222;2023-04-09T00:28:54;101620.88;;;11.52;51.55
70916;BME280;58557;50.982;-3.222;2023-04-09T00:31:19;101620.93;;;11.64;51.62
70916;BME280;58557;50.982;-3.222;2023-04-09T00:33:45;101618.49;;;10.93;51.99
70916;BME280;58557;50.982;-3.222;2023-04-09T00:36:10;101619.08;;;10.82;51.68
70916;BME280;58557;50.982;-3.222;2023-04-09T00:38:36;101610.36;;;12.01;49.75
70916;BME280;58557;50.982;-3.222;2023-04-09T00:41:02;101609.92;;;11.21;51.17
70916;BME280;58557;50.982;-3.222;2023-04-09T00:43:27;101608.52;;;11.40;50.70
70916;BME280;58557;50.982;-3.222;2023-04-09T00:45:52;101603.30;;;11.36;50.45
70916;BME280;58557;50.982;-3.222;2023-04-09T00:48:18;101598.97;;;12.28;47.97
70916;BME280;58557;50.982;-3.222;2023-04-09T00:50:43;101596.08;;;12.16;47.70
70916;BME280;58557;50.982;-3.222;2023-04-09T00:53:09;101597.97;;;12.61;46.50
70916;BME280;58557;50.982;-3.222;2023-04-09T00:55:35;101595.41;;;12.50;46.43
70916;BME280;58557;50.982;-3.222;2023-04-09T00:57:59;101585.79;;;12.40;46.55
70916;BME280;58557;50.982;-3.222;2023-04-09T01:00:24;101584.47;;;12.15;47.93
70916;BME280;58557;50.982;-3.222;2023-04-09T01:02:50;101583.98;;;11.69;47.51
70916;BME280;58557;50.982;-3.222;2023-04-09T01:05:16;101581.96;;;12.23;46.38
70916;BME280;58557;50.982;-3.222;2023-04-09T01:07:52;101582.85;;;12.46;46.32
70916;BME280;58557;50.982;-3.222;2023-04-09T01:10:12;101584.11;;;12.44;46.15
70916;BME280;58557;50.982;-3.222;2023-04-09T01:12:35;101582.07;;;12.55;46.50
70916;BME280;58557;50.982;-3.222;2023-04-09T01:15:02;101581.98;;;12.90;45.47
70916;BME280;58557;50.982;-3.222;2023-04-09T01:17:28;101580.54;;;12.83;45.58
70916;BME280;58557;50.982;-3.222;2023-04-09T01:19:53;101578.02;;;12.45;45.69
70916;BME280;58557;50.982;-3.222;2023-04-09T01:22:23;101575.58;;;13.00;45.38
70916;BME280;58557;50.982;-3.222;2023-04-09T01:24:43;101570.85;;;13.07;45.40
70916;BME280;58557;50.982;-3.222;2023-04-09T01:27:05;101569.00;;;12.51;47.01
70916;BME280;58557;50.982;-3.222;2023-04-09T01:29:31;101564.85;;;12.14;47.94
70916;BME280;58557;50.982;-3.222;2023-04-09T01:31:54;101563.24;;;11.78;49.15
70916;BME280;58557;50.982;-3.222;2023-04-09T01:34:20;101558.84;;;10.61;51.26
70916;BME280;58557;50.982;-3.222;2023-04-09T01:36:49;101553.53;;;11.13;51.63
70916;BME280;58557;50.982;-3.222;2023-04-09T01:39:11;101555.03;;;11.10;52.49
70916;BME280;58557;50.982;-3.222;2023-04-09T01:41:37;101547.72;;;11.20;51.22
70916;BME280;58557;50.982;-3.222;2023-04-09T01:44:03;101546.25;;;10.18;54.64
70916;BME280;58557;50.982;-3.222;2023-04-09T01:46:28;101542.24;;;11.13;53.77
70916;BME280;58557;50.982;-3.222;2023-04-09T01:48:53;101543.82;;;11.01;52.32
70916;BME280;58557;50.982;-3.222;2023-04-09T01:51:18;101546.95;;;10.56;54.02
70916;BME280;58557;50.982;-3.222;2023-04-09T01:53:44;101547.13;;;10.73;53.41
70916;BME280;58557;50.982;-3.222;2023-04-09T01:56:09;101547.56;;;10.09;53.98
70916;BME280;58557;50.982;-3.222;2023-04-09T01:58:35;101549.86;;;10.83;52.39
70916;BME280;58557;50.982;-3.222;2023-04-09T02:01:05;101551.30;;;10.27;52.73
70916;BME280;58557;50.982;-3.222;2023-04-09T02:03:31;101545.08;;;11.28;50.30
70916;BME280;58557;50.982;-3.222;2023-04-09T02:05:55;101538.10;;;10.08;55.69
70916;BME280;58557;50.982;-3.222;2023-04-09T02:08:19;101540.49;;;10.50;53.03
70916;BME280;58557;50.982;-3.222;2023-04-09T02:10:44;101537.94;;;10.91;53.18
70916;BME280;58557;50.982;-3.222;2023-04-09T02:13:09;101534.44;;;10.57;52.47
70916;BME280;58557;50.982;-3.222;2023-04-09T02:15:35;101532.97;;;10.79;52.59
70916;BME280;58557;50.982;-3.222;2023-04-09T02:17:58;101532.78;;;11.40;50.64
70916;BME280;58557;50.982;-3.222;2023-04-09T02:20:23;101531.11;;;11.37;50.18
70916;BME280;58557;50.982;-3.222;2023-04-09T02:22:48;101534.26;;;11.22;50.52
70916;BME280;58557;50.982;-3.222;2023-04-09T02:25:14;101534.06;;;10.90;51.16
70916;BME280;58557;50.982;-3.222;2023-04-09T02:27:39;101537.98;;;9.91;53.40
70916;BME280;58557;50.982;-3.222;2023-04-09T02:30:06;101535.14;;;11.11;50.94
70916;BME280;58557;50.982;-3.222;2023-04-09T02:32:30;101530.41;;;11.02;51.15
70916;BME280;58557;50.982;-3.222;2023-04-09T02:34:55;101534.55;;;10.55;50.65
70916;BME280;58557;50.982;-3.222;2023-04-09T02:37:21;101533.64;;;10.96;50.05
70916;BME280;58557;50.982;-3.222;2023-04-09T02:39:46;101533.67;;;10.33;51.04
70916;BME280;58557;50.982;-3.222;2023-04-09T02:42:12;101527.71;;;10.21;51.10
70916;BME280;58557;50.982;-3.222;2023-04-09T02:44:37;101518.89;;;10.37;51.87
70916;BME280;58557;50.982;-3.222;2023-04-09T02:47:02;101513.47;;;10.44;52.18
70916;BME280;58557;50.982;-3.222;2023-04-09T02:49:27;101513.06;;;9.91;53.36
70916;BME280;58557;50.982;-3.222;2023-04-09T02:51:53;101515.88;;;9.87;52.19
70916;BME280;58557;50.982;-3.222;2023-04-09T02:54:18;101516.21;;;9.83;51.96
70916;BME280;58557;50.982;-3.222;2023-04-09T02:56:43;101506.14;;;9.45;53.37
70916;BME280;58557;50.982;-3.222;2023-04-09T02:59:09;101502.56;;;9.61;52.84
70916;BME280;58557;50.982;-3.222;2023-04-09T03:01:35;101495.09;;;9.61;53.22
70916;BME280;58557;50.982;-3.222;2023-04-09T03:04:00;101480.06;;;10.66;51.48
70916;BME280;58557;50.982;-3.222;2023-04-09T03:06:26;101477.09;;;10.36;50.54
70916;BME280;58557;50.982;-3.222;2023-04-09T03:08:51;101479.67;;;9.61;51.79
70916;BME280;58557;50.982;-3.222;2023-04-09T03:11:17;101475.71;;;8.99;52.43
70916;BME280;58557;50.982;-3.222;2023-04-09T03:13:42;101476.15;;;9.72;54.09
70916;BME280;58557;50.982;-3.222;2023-04-09T03:16:07;101478.76;;;9.79;52.15
70916;BME280;58557;50.982;-3.222;2023-04-09T03:18:33;101478.02;;;10.32;51.13
70916;BME280;58557;50.982;-3.222;2023-04-09T03:20:58;101481.36;;;9.60;51.07
70916;BME280;58557;50.982;-3.222;2023-04-09T03:23:24;101478.29;;;9.67;51.42
70916;BME280;58557;50.982;-3.222;2023-04-09T03:25:59;101473.39;;;10.34;50.89
70916;BME280;58557;50.982;-3.222;2023-04-09T03:28:15;101473.42;;;8.77;55.84
70916;BME280;58557;50.982;-3.222;2023-04-09T03:30:40;101468.63;;;8.31;56.84
70916;BME280;58557;50.982;-3.222;2023-04-09T03:33:05;101465.71;;;8.82;55.25
70916;BME280;58557;50.982;-3.222;2023-04-09T03:35:32;101468.53;;;10.18;53.76
70916;BME280;58557;50.982;-3.222;2023-04-09T03:37:56;101468.17;;;10.20;51.81
70916;BME280;58557;50.982;-3.222;2023-04-09T03:40:21;101467.78;;;8.86;53.30
70916;BME280;58557;50.982;-3.222;2023-04-09T03:42:47;101465.54;;;8.95;55.24
70916;BME280;58557;50.982;-3.222;2023-04-09T03:45:12;101458.54;;;9.00;55.97
70916;BME280;58557;50.982;-3.222;2023-04-09T03:47:38;101456.52;;;8.52;59.80
70916;BME280;58557;50.982;-3.222;2023-04-09T03:50:03;101450.78;;;8.52;59.87
70916;BME280;58557;50.982;-3.222;2023-04-09T03:52:29;101444.85;;;9.48;57.33
70916;BME280;58557;50.982;-3.222;2023-04-09T03:54:54;101448.62;;;9.37;55.73
70916;BME280;58557;50.982;-3.222;2023-04-09T03:57:20;101450.74;;;8.52;55.94
70916;BME280;58557;50.982;-3.222;2023-04-09T03:59:45;101449.52;;;8.91;55.93
70916;BME280;58557;50.982;-3.222;2023-04-09T04:02:10;101440.77;;;9.35;53.46
70916;BME280;58557;50.982;-3.222;2023-04-09T04:04:36;101437.52;;;9.32;53.70
70916;BME280;58557;50.982;-3.222;2023-04-09T04:07:02;101433.56;;;7.80;56.57
70916;BME280;58557;50.982;-3.222;2023-04-09T04:09:26;101425.99;;;9.03;54.78
70916;BME280;58557;50.982;-3.222;2023-04-09T04:11:52;101425.85;;;9.54;54.55
70916;BME280;58557;50.982;-3.222;2023-04-09T04:14:17;101429.70;;;10.10;52.58
70916;BME280;58557;50.982;-3.222;2023-04-09T04:16:43;101426.31;;;9.08;54.07
70916;BME280;58557;50.982;-3.222;2023-04-09T04:19:08;101427.73;;;8.76;55.42
70916;BME280;58557;50.982;-3.222;2023-04-09T04:21:33;101428.38;;;8.92;55.38
70916;BME280;58557;50.982;-3.222;2023-04-09T04:23:59;101419.52;;;8.84;55.26
70916;BME280;58557;50.982;-3.222;2023-04-09T04:26:24;101414.92;;;8.84;57.62
70916;BME280;58557;50.982;-3.222;2023-04-09T04:28:50;101410.57;;;8.80;55.17
70916;BME280;58557;50.982;-3.222;2023-04-09T04:31:15;101404.89;;;9.59;53.24
70916;BME280;58557;50.982;-3.222;2023-04-09T04:33:41;101403.93;;;9.01;55.54
70916;BME280;58557;50.982;-3.222;2023-04-09T04:36:07;101402.34;;;9.97;53.30
70916;BME280;58557;50.982;-3.222;2023-04-09T04:38:32;101403.69;;;8.58;55.07
70916;BME280;58557;50.982;-3.222;2023-04-09T04:40:58;101402.25;;;8.89;55.14
70916;BME280;58557;50.982;-3.222;2023-04-09T04:43:23;101397.71;;;9.11;53.56
70916;BME280;58557;50.982;-3.222;2023-04-09T04:45:48;101400.96;;;9.72;52.44
70916;BME280;58557;50.982;-3.222;2023-04-09T04:48:14;101408.65;;;9.96;51.36
70916;BME280;58557;50.982;-3.222;2023-04-09T04:50:40;101417.12;;;9.65;51.72
70916;BME280;58557;50.982;-3.222;2023-04-09T04:53:06;101419.24;;;8.14;55.08
70916;BME280;58557;50.982;-3.222;2023-04-09T04:55:34;101421.64;;;9.58;53.52
70916;BME280;58557;50.982;-3.222;2023-04-09T04:57:57;101422.19;;;8.59;54.94
70916;BME280;58557;50.982;-3.222;2023-04-09T05:00:23;101422.39;;;8.09;56.49
70916;BME280;58557;50.982;-3.222;2023-04-09T05:02:48;101423.99;;;7.90;56.54
70916;BME280;58557;50.982;-3.222;2023-04-09T05:05:14;101425.42;;;8.99;55.87
70916;BME280;58557;50.982;-3.222;2023-04-09T05:07:39;101424.69;;;9.68;52.92
70916;BME280;58557;50.982;-3.222;2023-04-09T05:10:06;101427.13;;;9.13;53.43
70916;BME280;58557;50.982;-3.222;2023-04-09T05:12:30;101435.27;;;8.15;55.98
70916;BME280;58557;50.982;-3.222;2023-04-09T05:14:55;101438.75;;;7.87;58.32
70916;BME280;58557;50.982;-3.222;2023-04-09T05:17:20;101425.59;;;8.60;54.46
70916;BME280;58557;50.982;-3.222;2023-04-09T05:19:50;101417.93;;;9.73;52.29
70916;BME280;58557;50.982;-3.222;2023-04-09T05:22:11;101412.24;;;10.08;50.25
70916;BME280;58557;50.982;-3.222;2023-04-09T05:24:36;101408.19;;;9.75;50.31
70916;BME280;58557;50.982;-3.222;2023-04-09T05:27:02;101403.29;;;9.79;50.01
70916;BME280;58557;50.982;-3.222;2023-04-09T05:29:28;101403.00;;;9.95;49.20
70916;BME280;58557;50.982;-3.222;2023-04-09T05:31:53;101409.64;;;7.84;52.27
70916;BME280;58557;50.982;-3.222;2023-04-09T05:34:18;101402.85;;;9.24;49.84
70916;BME280;58557;50.982;-3.222;2023-04-09T05:36:44;101398.48;;;10.14;49.94
70916;BME280;58557;50.982;-3.222;2023-04-09T05:39:09;101395.59;;;9.31;50.49
70916;BME280;58557;50.982;-3.222;2023-04-09T05:41:34;101394.81;;;9.68;51.43
70916;BME280;58557;50.982;-3.222;2023-04-09T05:43:59;101404.29;;;10.14;50.65
70916;BME280;58557;50.982;-3.222;2023-04-09T05:46:24;101403.36;;;10.71;48.77
70916;BME280;58557;50.982;-3.222;2023-04-09T05:48:50;101405.39;;;10.00;50.53
70916;BME280;58557;50.982;-3.222;2023-04-09T05:51:15;101403.69;;;8.63;55.41
70916;BME280;58557;50.982;-3.222;2023-04-09T05:53:40;101404.72;;;9.14;55.38
70916;BME280;58557;50.982;-3.222;2023-04-09T05:56:12;101401.49;;;8.71;57.24
70916;BME280;58557;50.982;-3.222;2023-04-09T05:58:32;101400.27;;;8.80;57.52
70916;BME280;58557;50.982;-3.222;2023-04-09T06:00:57;101401.78;;;9.16;57.29
70916;BME280;58557;50.982;-3.222;2023-04-09T06:03:22;101404.71;;;9.37;57.22
70916;BME280;58557;50.982;-3.222;2023-04-09T06:05:47;101411.52;;;7.99;60.83
70916;BME280;58557;50.982;-3.222;2023-04-09T06:08:14;101414.74;;;8.92;58.01
70916;BME280;58557;50.982;-3.222;2023-04-09T06:10:39;101420.05;;;7.35;63.48
70916;BME280;58557;50.982;-3.222;2023-04-09T06:13:05;101419.38;;;7.25;65.65
70916;BME280;58557;50.982;-3.222;2023-04-09T06:15:31;101414.27;;;6.92;65.38
70916;BME280;58557;50.982;-3.222;2023-04-09T06:17:56;101409.58;;;7.87;64.10
70916;BME280;58557;50.982;-3.222;2023-04-09T06:20:21;101400.84;;;7.87;63.48
70916;BME280;58557;50.982;-3.222;2023-04-09T06:22:47;101396.97;;;7.85;62.78
70916;BME280;58557;50.982;-3.222;2023-04-09T06:25:12;101392.92;;;8.14;63.75
70916;BME280;58557;50.982;-3.222;2023-04-09T06:27:38;101402.88;;;9.09;60.26
70916;BME280;58557;50.982;-3.222;2023-04-09T06:30:04;101406.63;;;9.78;56.49
70916;BME280;58557;50.982;-3.222;2023-04-09T06:32:29;101401.57;;;9.72;57.19
70916;BME280;58557;50.982;-3.222;2023-04-09T06:34:55;101391.46;;;9.82;57.55
70916;BME280;58557;50.982;-3.222;2023-04-09T06:37:20;101383.08;;;9.56;58.16
70916;BME280;58557;50.982;-3.222;2023-04-09T06:39:45;101379.74;;;10.16;55.91
70916;BME280;58557;50.982;-3.222;2023-04-09T06:42:10;101380.45;;;10.34;55.49
70916;BME280;58557;50.982;-3.222;2023-04-09T06:44:36;101377.05;;;10.71;54.83
70916;BME280;58557;50.982;-3.222;2023-04-09T06:47:01;101374.99;;;10.87;53.57
70916;BME280;58557;50.982;-3.222;2023-04-09T06:49:27;101371.70;;;10.60;54.46
70916;BME280;58557;50.982;-3.222;2023-04-09T06:51:52;101367.56;;;9.61;57.77
70916;BME280;58557;50.982;-3.222;2023-04-09T06:54:18;101369.67;;;9.66;59.70
70916;BME280;58557;50.982;-3.222;2023-04-09T06:56:43;101371.24;;;9.65;59.41
70916;BME280;58557;50.982;-3.222;2023-04-09T06:59:08;101368.88;;;9.40;60.03
70916;BME280;58557;50.982;-3.222;2023-04-09T07:01:34;101367.15;;;8.82;63.55
70916;BME280;58557;50.982;-3.222;2023-04-09T07:03:59;101358.33;;;8.19;66.49
70916;BME280;58557;50.982;-3.222;2023-04-09T07:06:24;101357.31;;;8.55;64.13
70916;BME280;58557;50.982;-3.222;2023-04-09T07:08:50;101349.07;;;9.06;63.56
70916;BME280;58557;50.982;-3.222;2023-04-09T07:11:15;101345.57;;;8.48;64.59
70916;BME280;58557;50.982;-3.222;2023-04-09T07:13:41;101347.35;;;8.74;64.27
70916;BME280;58557;50.982;-3.222;2023-04-09T07:16:07;101346.79;;;9.38;62.55
70916;BME280;58557;50.982;-3.222;2023-04-09T07:18:32;101342.47;;;9.87;60.74
70916;BME280;58557;50.982;-3.222;2023-04-09T07:20:58;101337.43;;;9.29;61.69
70916;BME280;58557;50.982;-3.222;2023-04-09T07:23:24;101334.67;;;10.08;58.45
70916;BME280;58557;50.982;-3.222;2023-04-09T07:25:49;101336.98;;;10.14;61.30
70916;BME280;58557;50.982;-3.222;2023-04-09T07:28:14;101334.81;;;10.38;58.36
70916;BME280;58557;50.982;-3.222;2023-04-09T07:30:40;101339.48;;;10.98;56.39
70916;BME280;58557;50.982;-3.222;2023-04-09T07:33:05;101340.87;;;11.80;54.10
70916;BME280;58557;50.982;-3.222;2023-04-09T07:35:31;101336.35;;;12.39;53.99
70916;BME280;58557;50.982;-3.222;2023-04-09T07:37:56;101338.88;;;12.74;52.71
70916;BME280;58557;50.982;-3.222;2023-04-09T07:40:22;101333.16;;;13.48;48.70
70916;BME280;58557;50.982;-3.222;2023-04-09T07:42:48;101332.07;;;12.98;48.74
70916;BME280;58557;50.982;-3.222;2023-04-09T07:45:14;101329.71;;;13.18;48.76
70916;BME280;58557;50.982;-3.222;2023-04-09T07:47:39;101330.26;;;13.25;48.50
70916;BME280;58557;50.982;-3.222;2023-04-09T07:50:05;101328.22;;;13.53;47.92
70916;BME280;58557;50.982;-3.222;2023-04-09T07:52:30;101330.09;;;14.24;46.70
70916;BME280;58557;50.982;-3.222;2023-04-09T07:54:55;101335.52;;;14.21;47.64
70916;BME280;58557;50.982;-3.222;2023-04-09T07:57:21;101337.87;;;13.58;49.95
70916;BME280;58557;50.982;-3.222;2023-04-09T07:59:46;101334.62;;;12.84;53.35
70916;BME280;58557;50.982;-3.222;2023-04-09T08:02:12;101334.22;;;13.14;53.59
70916;BME280;58557;50.982;-3.222;2023-04-09T08:04:37;101335.32;;;13.52;53.62
70916;BME280;58557;50.982;-3.222;2023-04-09T08:07:03;101339.99;;;13.31;54.30
70916;BME280;58557;50.982;-3.222;2023-04-09T08:09:28;101340.48;;;13.53;54.40
70916;BME280;58557;50.982;-3.222;2023-04-09T08:11:54;101339.21;;;13.60;53.28
70916;BME280;58557;50.982;-3.222;2023-04-09T08:14:19;101340.69;;;13.43;54.32
70916;BME280;58557;50.982;-3.222;2023-04-09T08:16:45;101338.99;;;13.89;53.77
70916;BME280;58557;50.982;-3.222;2023-04-09T08:19:11;101331.55;;;13.99;53.57
70916;BME280;58557;50.982;-3.222;2023-04-09T08:21:36;101331.59;;;14.74;52.16
70916;BME280;58557;50.982;-3.222;2023-04-09T08:24:00;101328.51;;;14.91;51.75
70916;BME280;58557;50.982;-3.222;2023-04-09T08:26:25;101329.53;;;15.12;51.15
70916;BME280;58557;50.982;-3.222;2023-04-09T08:28:50;101335.58;;;16.05;48.80
70916;BME280;58557;50.982;-3.222;2023-04-09T08:31:16;101339.53;;;16.20;49.63
70916;BME280;58557;50.982;-3.222;2023-04-09T08:33:41;101336.04;;;16.41;47.79
70916;BME280;58557;50.982;-3.222;2023-04-09T08:36:07;101331.88;;;16.77;46.24
70916;BME280;58557;50.982;-3.222;2023-04-09T08:38:33;101336.31;;;16.61;47.08
70916;BME280;58557;50.982;-3.222;2023-04-09T08:40:58;101331.59;;;16.18;47.79
70916;BME280;58557;50.982;-3.222;2023-04-09T08:43:23;101331.17;;;16.39;48.14
70916;BME280;58557;50.982;-3.222;2023-04-09T08:45:48;101330.38;;;16.30;48.15
70916;BME280;58557;50.982;-3.222;2023-04-09T08:48:14;101326.31;;;15.92;47.77
70916;BME280;58557;50.982;-3.222;2023-04-09T08:50:40;101322.93;;;14.15;53.39
70916;BME280;58557;50.982;-3.222;2023-04-09T08:53:05;101320.68;;;15.67;50.21
70916;BME280;58557;50.982;-3.222;2023-04-09T08:55:30;101321.77;;;15.71;49.85
70916;BME280;58557;50.982;-3.222;2023-04-09T08:57:56;101325.33;;;15.40;50.32
70916;BME280;58557;50.982;-3.222;2023-04-09T09:00:20;101329.53;;;14.82;51.32
70916;BME280;58557;50.982;-3.222;2023-04-09T09:03:01;101329.86;;;15.91;48.35
70916;BME280;58557;50.982;-3.222;2023-04-09T09:05:11;101328.96;;;15.57;49.25
70916;BME280;58557;50.982;-3.222;2023-04-09T09:07:44;101326.11;;;15.31;50.05
70916;BME280;58557;50.982;-3.222;2023-04-09T09:10:02;101324.55;;;15.84;49.27
70916;BME280;58557;50.982;-3.222;2023-04-09T09:12:32;101322.69;;;16.28;48.38
70916;BME280;58557;50.982;-3.222;2023-04-09T09:14:53;101324.75;;;16.19;47.37
70916;BME280;58557;50.982;-3.222;2023-04-09T09:17:19;101318.35;;;14.28;50.38
70916;BME280;58557;50.982;-3.222;2023-04-09T09:19:44;101320.28;;;15.56;48.95
70916;BME280;58557;50.982;-3.222;2023-04-09T09:22:10;101319.56;;;15.55;48.63
70916;BME280;58557;50.982;-3.222;2023-04-09T09:24:45;101314.78;;;16.21;48.49
70916;BME280;58557;50.982;-3.222;2023-04-09T09:27:01;101314.27;;;15.86;47.19
70916;BME280;58557;50.982;-3.222;2023-04-09T09:29:27;101317.86;;;16.34;46.48
70916;BME280;58557;50.982;-3.222;2023-04-09T09:31:53;101322.14;;;15.42;47.07
70916;BME280;58557;50.982;-3.222;2023-04-09T09:34:18;101321.28;;;14.87;49.54
70916;BME280;58557;50.982;-3.222;2023-04-09T09:36:44;101321.54;;;15.63;47.17
70916;BME280;58557;50.982;-3.222;2023-04-09T09:39:09;101318.05;;;16.20;46.15
70916;BME280;58557;50.982;-3.222;2023-04-09T09:41:35;101320.36;;;16.29;47.20
70916;BME280;58557;50.982;-3.222;2023-04-09T09:44:00;101319.45;;;16.02;46.98
70916;BME280;58557;50.982;-3.222;2023-04-09T09:46:25;101318.77;;;15.90;46.34
70916;BME280;58557;50.982;-3.222;2023-04-09T09:48:50;101318.29;;;15.59;47.89
70916;BME280;58557;50.982;-3.222;2023-04-09T09:51:16;101312.35;;;15.77;47.47
70916;BME280;58557;50.982;-3.222;2023-04-09T09:53:44;101310.37;;;15.69;47.02
70916;BME280;58557;50.982;-3.222;2023-04-09T09:56:13;101308.95;;;15.91;47.08
70916;BME280;58557;50.982;-3.222;2023-04-09T09:58:36;101305.91;;;15.76;47.13
70916;BME280;58557;50.982;-3.222;2023-04-09T10:00:57;101301.29;;;16.06;46.29
70916;BME280;58557;50.982;-3.222;2023-04-09T10:03:25;101299.92;;;16.69;46.61
70916;BME280;58557;50.982;-3.222;2023-04-09T10:05:49;101297.45;;;15.49;47.18
70916;BME280;58557;50.982;-3.222;2023-04-09T10:08:15;101291.21;;;15.28;49.29
70916;BME280;58557;50.982;-3.222;2023-04-09T10:10:41;101283.18;;;16.62;45.23
70916;BME280;58557;50.982;-3.222;2023-04-09T10:13:06;101283.09;;;16.63;44.85
70916;BME280;58557;50.982;-3.222;2023-04-09T10:15:31;101278.45;;;17.53;43.32
70916;BME280;58557;50.982;-3.222;2023-04-09T10:17:56;101274.24;;;17.70;42.48
70916;BME280;58557;50.982;-3.222;2023-04-09T10:20:26;101270.31;;;17.42;42.46
70916;BME280;58557;50.982;-3.222;2023-04-09T10:22:48;101262.10;;;18.03;41.40
70916;BME280;58557;50.982;-3.222;2023-04-09T10:25:12;101262.89;;;17.40;42.65
70916;BME280;58557;50.982;-3.222;2023-04-09T10:27:37;101265.77;;;17.76;41.35
70916;BME280;58557;50.982;-3.222;2023-04-09T10:30:03;101262.72;;;16.71;43.20
70916;BME280;58557;50.982;-3.222;2023-04-09T10:32:33;101265.70;;;16.97;44.08
70916;BME280;58557;50.982;-3.222;2023-04-09T10:34:56;101264.11;;;16.05;45.24
70916;BME280;58557;50.982;-3.222;2023-04-09T10:37:21;101246.90;;;16.65;44.74
70916;BME280;58557;50.982;-3.222;2023-04-09T10:39:45;101238.72;;;16.94;43.83
70916;BME280;58557;50.982;-3.222;2023-04-09T10:42:12;101232.70;;;17.33;43.26
70916;BME280;58557;50.982;-3.222;2023-04-09T10:44:34;101227.81;;;17.32;43.41
70916;BME280;58557;50.982;-3.222;2023-04-09T10:47:02;101224.63;;;17.58;41.32
70916;BME280;58557;50.982;-3.222;2023-04-09T10:49:26;101226.50;;;17.15;41.35
70916;BME280;58557;50.982;-3.222;2023-04-09T10:51:52;101227.44;;;17.36;42.50
70916;BME280;58557;50.982;-3.222;2023-04-09T10:54:36;101216.98;;;17.06;42.52
70916;BME280;58557;50.982;-3.222;2023-04-09T10:59:07;101222.40;;;17.29;43.25
70916;BME280;58557;50.982;-3.222;2023-04-09T11:01:32;101219.14;;;16.56;43.82
70916;BME280;58557;50.982;-3.222;2023-04-09T11:04:06;101208.42;;;16.23;44.85
70916;BME280;58557;50.982;-3.222;2023-04-09T11:06:23;101202.44;;;17.12;44.03
70916;BME280;58557;50.982;-3.222;2023-04-09T11:08:49;101199.04;;;17.60;43.69
70916;BME280;58557;50.982;-3.222;2023-04-09T11:11:15;101197.93;;;16.87;43.91
70916;BME280;58557;50.982;-3.222;2023-04-09T11:13:40;101194.08;;;16.66;43.52
70916;BME280;58557;50.982;-3.222;2023-04-09T11:16:06;101191.91;;;16.05;44.00
70916;BME280;58557;50.982;-3.222;2023-04-09T11:18:31;101189.40;;;16.03;44.36
70916;BME280;58557;50.982;-3.222;2023-04-09T11:20:58;101193.57;;;15.17;47.91
70916;BME280;58557;50.982;-3.222;2023-04-09T11:23:22;101188.03;;;15.85;46.18
70916;BME280;58557;50.982;-3.222;2023-04-09T11:25:48;101198.98;;;14.30;48.94
70916;BME280;58557;50.982;-3.222;2023-04-09T11:28:13;101197.43;;;14.66;48.91
70916;BME280;58557;50.982;-3.222;2023-04-09T11:30:38;101202.62;;;15.50;48.54
70916;BME280;58557;50.982;-3.222;2023-04-09T11:33:03;101196.64;;;15.50;48.00
70916;BME280;58557;50.982;-3.222;2023-04-09T11:35:28;101194.36;;;15.63;48.15
70916;BME280;58557;50.982;-3.222;2023-04-09T11:37:54;101188.03;;;15.94;48.13
70916;BME280;58557;50.982;-3.222;2023-04-09T11:40:20;101178.34;;;15.49;46.89
70916;BME280;58557;50.982;-3.222;2023-04-09T11:42:47;101170.85;;;15.23;47.48
70916;BME280;58557;50.982;-3.222;2023-04-09T11:45:11;101178.60;;;15.39;47.40
70916;BME280;58557;50.982;-3.222;2023-04-09T11:47:36;101179.63;;;15.83;47.13
70916;BME280;58557;50.982;-3.222;2023-04-09T11:50:01;101175.77;;;16.51;45.02
70916;BME280;58557;50.982;-3.222;2023-04-09T11:52:26;101167.58;;;16.14;46.61
70916;BME280;58557;50.982;-3.222;2023-04-09T11:54:51;101163.10;;;16.31;44.69
70916;BME280;58557;50.982;-3.222;2023-04-09T11:57:16;101170.96;;;15.76;46.26
70916;BME280;58557;50.982;-3.222;2023-04-09T11:59:41;101167.20;;;16.15;46.17
70916;BME280;58557;50.982;-3.222;2023-04-09T12:02:08;101178.88;;;15.28;47.20
70916;BME280;58557;50.982;-3.222;2023-04-09T12:04:33;101179.76;;;15.17;47.87
70916;BME280;58557;50.982;-3.222;2023-04-09T12:06:58;101180.10;;;15.29;47.51
70916;BME280;58557;50.982;-3.222;2023-04-09T12:09:24;101173.83;;;14.84;47.96
70916;BME280;58557;50.982;-3.222;2023-04-09T12:11:50;101172.46;;;14.61;48.64
70916;BME280;58557;50.982;-3.222;2023-04-09T12:14:16;101164.76;;;14.24;50.24
70916;BME280;58557;50.982;-3.222;2023-04-09T12:16:41;101168.79;;;14.32;49.65
70916;BME280;58557;50.982;-3.222;2023-04-09T12:19:08;101165.95;;;14.25;50.29
70916;BME280;58557;50.982;-3.222;2023-04-09T12:21:44;101172.74;;;14.85;49.21
70916;BME280;58557;50.982;-3.222;2023-04-09T12:23:56;101176.58;;;14.55;49.40
70916;BME280;58557;50.982;-3.222;2023-04-09T12:26:27;101172.91;;;14.51;49.01
70916;BME280;58557;50.982;-3.222;2023-04-09T12:28:48;101167.34;;;15.17;49.10
70916;BME280;58557;50.982;-3.222;2023-04-09T12:31:14;101166.24;;;15.62;47.46
70916;BME280;58557;50.982;-3.222;2023-04-09T12:33:39;101161.58;;;15.32;47.21
70916;BME280;58557;50.982;-3.222;2023-04-09T12:36:04;101159.23;;;15.91;47.14